Airfield :
LOGIN :

Register | Disclaimer

   EN    FR    IT 

 










Legend :    VFR   Marginal VFR   IFR   Intensive IFR   Very Intensive IFR
Visi :
Ceiling :
>= 8 km
>= 3000ft
5 to 8 km
1000 to 3000 ft
1500m to 5 km
500 to 1000 ft
800 to 1500m
200 to 500 ft
< 800m
< 200 ft
Symbols :   Thunderstorms  Fog  Heavy snow  Heavy precipitations  Wind > 20 kt
SIGMETs :     Misc.  Thunderstorms  Icing  Turbulence  Mountain Waves  Volcanic Ashes






- Airport Elevation : 37 ft


EHVL - Vlieland Heliport

CURRENT METAR :
  • 291525Z AUTO 20013KT 9999 DZ SCT012 BKN014 OVC017 11/10 Q1012 GRN

EXPIRED METARs :
  • 291518Z AUTO 20013KT 9999 DZ SCT012 BKN014 OVC017 11/09 Q1012 GRN
  • 291455Z AUTO 22019KT 9999 -RA FEW015CB BKN019 BKN023 OVC031 11/08 Q1012 WHT
  • 291444Z AUTO 23019KT 9999 -RA FEW015CB BKN022 OVC025 11/08 Q1012 WHT
  • 291440Z AUTO 23020KT 9999 -RA FEW015CB OVC025 11/08 Q1012 BLU
  • 291425Z AUTO 23019KT 9999 -RA FEW015CB BKN031 OVC035 11/08 Q1012 BLU
  • 291414Z AUTO 24020KT 9999 -RA FEW019 SCT031 BKN039 12/08 Q1012 BLU
  • 291355Z AUTO 24020KT 9999 DZ FEW022 SCT028 BKN044 12/08 Q1012 BLU
  • 291343Z AUTO 24020KT 9999 DZ FEW021 BKN048 BKN058 12/08 Q1012 BLU
  • 291334Z AUTO 24021KT 9999 -DZRA FEW025 BKN053 BKN059 12/07 Q1012 BLU
  • 291325Z AUTO 24021KT 9999 FEW023 SCT027 BKN054 12/08 Q1012 BLU
  • 291312Z AUTO 24021KT 9999 SCT023 SCT027 BKN032 12/07 Q1012 WHT
  • 291256Z AUTO 24020KT 9999 SCT023 BKN027 BKN035 12/07 Q1012 WHT

Expired Forecast.



MET'MAP, your aeronautical weather chart ! - Copyright ORBIFLY December 2007 - Disclaimer

ORBIFLY MET'MAP TEAM :

Programming & Development : Alexandra Zaïnal
Concept & original design : Baudouin d'Aumeries
Assistance for programming : Marc-Olivier Méhu
Technical & hardware support : Manuel Goepfert

Contact : metmap@orbifly.com




SOURCES & CREDITS :

   NOAA